Njord R — OYOZ2 — position and weather

sailwx.info

Track history (hours):
 
Tides and Currents Weather Stations Pressure Air Temp Water Temp Dewpoint Dewpoint Depression Visibility Wind Speed Wind Dir Waves Ship Positions

Njord R

Last reported at 2018-Jun-18 19:27 UTC. Time now 2018-Jun-23 12:23 UTC.
Position N 36°31' W 006°21'.

Length 111 m; draft 7 m.

Type: Dredging. MMSI: 219387000.

Date/timePositionNaut miles runAvg speedWind from/ knotsBaromVisibWave heightAir tempDewpointWater temp
2018-Jun-18 19:27N 36°31' W 006°21'16 0.6
2018-Jun-17 19:08N 36°17' W 006°14'1 8.6
2018-Jun-17 19:00N 36°16' W 006°13'4 8.8
2018-Jun-17 18:30N 36°13' W 006°09'21 5.5
2018-Jun-17 14:41N 36°31' W 006°21'23 4.0
2018-Jun-17 08:53N 36°11' W 006°07'1 1.3
2018-Jun-17 08:30N 36°11' W 006°06'0 0.1
2018-Jun-17 07:58N 36°11' W 006°06'0 0.4
2018-Jun-17 07:30N 36°11' W 006°06'3 6.2
2018-Jun-17 06:57N 36°13' W 006°09'811.3
2018-Jun-17 06:15N 36°19' W 006°16'1010.6
2018-Jun-17 05:20N 36°28' W 006°20'410.3
2018-Jun-17 04:57N 36°32' W 006°20'14 3.3
2018-Jun-17 00:35N 36°19' W 006°15'110.5
2018-Jun-17 00:29N 36°18' W 006°15'510.3
2018-Jun-17 00:00N 36°14' W 006°11'4 9.1
2018-Jun-16 23:30N 36°11' W 006°06'0 0.2
2018-Jun-16 23:00N 36°11' W 006°06'0 0.1
2018-Jun-16 22:02N 36°11' W 006°06'0 1.0
2018-Jun-16 22:00N 36°11' W 006°06'2 0.1
2018-Jun-16 04:18N 36°12' W 006°09'2 7.1
2018-Jun-16 04:00N 36°11' W 006°07'0 0.6
2018-Jun-16 03:30N 36°11' W 006°06'14 1.6
2018-Jun-15 18:48N 36°22' W 006°16'6 7.3
2018-Jun-15 17:54N 36°16' W 006°13'3 7.1
2018-Jun-15 17:30N 36°14' W 006°11'82 2.5
2018-Jun-14 08:10N 36°33' W 007°50'212.2
2018-Jun-14 08:00N 36°33' W 007°52'612.2
2018-Jun-14 07:30N 36°33' W 007°60'2012.1
2018-Jun-14 05:50N 36°32' W 008°25'411.9
2018-Jun-14 05:30N 36°32' W 008°30'1011.3
2018-Jun-14 04:35N 36°31' W 008°43'1310.8
2018-Jun-14 03:23N 36°31' W 008°59'711.3
2018-Jun-14 02:48N 36°32' W 009°07'411.5
2018-Jun-14 02:29N 36°33' W 009°11'811.6
2018-Jun-14 01:48N 36°36' W 009°20'411.9
2018-Jun-14 01:28N 36°39' W 009°23'611.5
2018-Jun-14 00:56N 36°44' W 009°29'511.2
2018-Jun-14 00:30N 36°47' W 009°33'712.0
2018-Jun-13 23:57N 36°54' W 009°35'712.3
2018-Jun-13 23:21N 37°01' W 009°38'1412.6
2018-Jun-13 22:15N 37°14' W 009°41'312.8
2018-Jun-13 22:00N 37°17' W 009°42'612.6
2018-Jun-13 21:30N 37°24' W 009°43'612.3
2018-Jun-13 21:00N 37°30' W 009°45'612.5
2018-Jun-13 20:30N 37°36' W 009°47'612.6
2018-Jun-13 20:00N 37°42' W 009°48'712.4
2018-Jun-13 19:28N 37°48' W 009°50'612.2
2018-Jun-13 18:58N 37°54' W 009°52'612.5
2018-Jun-13 18:31N 37°60' W 009°54'612.2
2018-Jun-13 18:01N 38°06' W 009°56'612.3
2018-Jun-13 17:31N 38°11' W 009°58'712.4
2018-Jun-13 16:58N 38°18' W 009°60'612.5
2018-Jun-13 16:30N 38°24' W 010°01'612.2
2018-Jun-13 16:00N 38°30' W 010°03'712.4
2018-Jun-13 15:27N 38°36' W 010°05'612.3
2018-Jun-13 15:00N 38°42' W 010°06'612.2
2018-Jun-13 14:30N 38°48' W 010°06'612.1
2018-Jun-13 14:01N 38°54' W 010°06'612.1
2018-Jun-13 13:31N 39°00' W 010°06'611.8
2018-Jun-13 13:00N 39°06' W 010°06'611.8
2018-Jun-13 12:31N 39°12' W 010°06'  
2018-Jun-10 18:19N 49°38' W 003°52'3 9.6
2018-Jun-10 17:58N 49°39' W 003°47'4 9.4
2018-Jun-10 17:30N 49°42' W 003°41'4 9.0
2018-Jun-10 17:00N 49°44' W 003°36'5 8.7
2018-Jun-10 16:27N 49°47' W 003°29'5 8.5
2018-Jun-10 15:54N 49°49' W 003°23'3 8.6
2018-Jun-10 15:30N 49°51' W 003°18'5 8.6
2018-Jun-10 14:58N 49°53' W 003°12'4310.4
2018-Jun-10 10:48N 50°08' W 002°09'412.4
2018-Jun-10 10:30N 50°09' W 002°03'612.3
2018-Jun-10 10:00N 50°11' W 001°54'612.0
2018-Jun-10 09:30N 50°12' W 001°45'611.4
2018-Jun-10 09:00N 50°13' W 001°36'510.8
2018-Jun-10 08:30N 50°15' W 001°28'510.2
2018-Jun-10 08:00N 50°16' W 001°20'5 9.6
2018-Jun-10 07:30N 50°17' W 001°13'4 8.9
2018-Jun-10 07:01N 50°18' W 001°06'4 8.2
2018-Jun-10 06:30N 50°19' W 001°00'4 7.7
2018-Jun-10 06:01N 50°21' W 000°54'4 7.4
2018-Jun-10 05:30N 50°22' W 000°49'4 7.4
2018-Jun-10 05:00N 50°23' W 000°43'4 7.4
2018-Jun-10 04:30N 50°24' W 000°38'4 7.9
2018-Jun-10 04:00N 50°25' W 000°32'510.2
2018-Jun-10 03:29N 50°26' W 000°24'511.0
2018-Jun-10 03:00N 50°28' W 000°16'611.6
2018-Jun-10 02:30N 50°29' W 000°07'612.0
2018-Jun-10 02:01N 50°31' E 000°02'612.4
2018-Jun-10 01:30N 50°32' E 000°12'612.6
2018-Jun-10 01:00N 50°34' E 000°21'612.8
2018-Jun-10 00:30N 50°36' E 000°31'612.6
2018-Jun-10 00:00N 50°40' E 000°39'612.4
2018-Jun-09 23:31N 50°43' E 000°47'612.1
2018-Jun-09 23:01N 50°47' E 000°54'611.8
2018-Jun-09 22:30N 50°51' E 001°02'611.3
2018-Jun-09 21:58N 50°55' E 001°09'710.8
2018-Jun-09 21:20N 50°59' E 001°17'310.1
2018-Jun-09 21:01N 51°01' E 001°21'510.2
2018-Jun-09 20:30N 51°04' E 001°28'510.6
2018-Jun-09 20:00N 51°07' E 001°35'510.6
2018-Jun-09 19:30N 51°11' E 001°42'511.1
2018-Jun-09 19:01N 51°15' E 001°47'612.0
2018-Jun-09 18:30N 51°20' E 001°51'612.7
2018-Jun-09 18:01N 51°25' E 001°57'713.1
2018-Jun-09 17:31N 51°30' E 002°04'713.2
2018-Jun-09 17:00N 51°35' E 002°11'713.3
2018-Jun-09 16:30N 51°40' E 002°18'713.5
2018-Jun-09 16:00N 51°46' E 002°25'1313.1
2018-Jun-09 15:00N 51°56' E 002°38'612.6
2018-Jun-09 14:30N 52°01' E 002°44'612.2
2018-Jun-09 14:00N 52°06' E 002°50'611.7
2018-Jun-09 13:31N 52°10' E 002°56'611.4
2018-Jun-09 13:00N 52°15' E 003°02'511.1
2018-Jun-09 12:30N 52°19' E 003°07'510.9
2018-Jun-09 12:01N 52°24' E 003°13'510.7
2018-Jun-09 11:30N 52°28' E 003°18'510.6
2018-Jun-09 11:00N 52°32' E 003°24'510.6
2018-Jun-09 10:30N 52°36' E 003°29'510.7
2018-Jun-09 10:00N 52°40' E 003°35'511.0
2018-Jun-09 09:31N 52°45' E 003°40'611.4
2018-Jun-09 08:59N 52°49' E 003°46'611.9
2018-Jun-09 08:30N 52°54' E 003°52'612.1
2018-Jun-09 08:01N 52°57' E 003°60'612.7
2018-Jun-09 07:31N 53°02' E 004°08'612.8
2018-Jun-09 07:00N 53°06' E 004°16'612.7
2018-Jun-09 06:30N 53°10' E 004°24'612.8
2018-Jun-09 06:00N 53°16' E 004°28'612.5
2018-Jun-09 05:30N 53°22' E 004°33'612.3
2018-Jun-09 05:00N 53°27' E 004°37'510.8
2018-Jun-09 04:31N 53°30' E 004°45'611.2
2018-Jun-09 04:01N 53°32' E 004°54'611.0
2018-Jun-09 03:30N 53°34' E 005°03'510.7
2018-Jun-09 03:00N 53°36' E 005°11'510.6
2018-Jun-09 02:30N 53°37' E 005°19'510.5
2018-Jun-09 02:00N 53°39' E 005°28'510.6
2018-Jun-09 01:30N 53°41' E 005°36'510.8
2018-Jun-09 01:00N 53°42' E 005°45'611.3
2018-Jun-09 00:30N 53°44' E 005°54'611.6
2018-Jun-09 00:01N 53°45' E 006°04'510.2
2018-Jun-08 23:29N 53°41' E 006°11'510.8
2018-Jun-08 23:00N 53°38' E 006°17'510.1
2018-Jun-08 22:30N 53°37' E 006°26'510.1
2018-Jun-08 22:00N 53°36' E 006°34'611.2
2018-Jun-08 21:30N 53°33' E 006°42'4 8.7
2018-Jun-08 21:01N 53°30' E 006°46'3 5.2
2018-Jun-08 20:30N 53°31' E 006°42'2 3.1
2018-Jun-08 20:00N 53°29' E 006°44'0 0.2
2018-Jun-08 19:30N 53°29' E 006°44'  
Track history (hours):
 
Tides and Currents Weather Stations Pressure Air Temp Water Temp Dewpoint Dewpoint Depression Visibility Wind Speed Wind Dir Waves Ship Positions

Njord R

Last reported at 2018-Jun-18 19:27 UTC. Time now 2018-Jun-23 12:23 UTC.
Position N 36°31' W 006°21'.

Length 111 m; draft 7 m.

Type: Dredging. MMSI: 219387000.

Date/timePositionNaut miles runAvg speedWind from/ knotsBaromVisibWave heightAir tempDewpointWater temp
2018-Jun-18 19:27N 36°31' W 006°21'16 0.6
2018-Jun-17 19:08N 36°17' W 006°14'1 8.6
2018-Jun-17 19:00N 36°16' W 006°13'4 8.8
2018-Jun-17 18:30N 36°13' W 006°09'21 5.5
2018-Jun-17 14:41N 36°31' W 006°21'23 4.0
2018-Jun-17 08:53N 36°11' W 006°07'1 1.3
2018-Jun-17 08:30N 36°11' W 006°06'0 0.1
2018-Jun-17 07:58N 36°11' W 006°06'0 0.4
2018-Jun-17 07:30N 36°11' W 006°06'3 6.2
2018-Jun-17 06:57N 36°13' W 006°09'811.3
2018-Jun-17 06:15N 36°19' W 006°16'1010.6
2018-Jun-17 05:20N 36°28' W 006°20'410.3
2018-Jun-17 04:57N 36°32' W 006°20'14 3.3
2018-Jun-17 00:35N 36°19' W 006°15'110.5
2018-Jun-17 00:29N 36°18' W 006°15'510.3
2018-Jun-17 00:00N 36°14' W 006°11'4 9.1
2018-Jun-16 23:30N 36°11' W 006°06'0 0.2
2018-Jun-16 23:00N 36°11' W 006°06'0 0.1
2018-Jun-16 22:02N 36°11' W 006°06'0 1.0
2018-Jun-16 22:00N 36°11' W 006°06'2 0.1
2018-Jun-16 04:18N 36°12' W 006°09'2 7.1
2018-Jun-16 04:00N 36°11' W 006°07'0 0.6
2018-Jun-16 03:30N 36°11' W 006°06'14 1.6
2018-Jun-15 18:48N 36°22' W 006°16'6 7.3
2018-Jun-15 17:54N 36°16' W 006°13'3 7.1
2018-Jun-15 17:30N 36°14' W 006°11'82 2.5
2018-Jun-14 08:10N 36°33' W 007°50'212.2
2018-Jun-14 08:00N 36°33' W 007°52'612.2
2018-Jun-14 07:30N 36°33' W 007°60'2012.1
2018-Jun-14 05:50N 36°32' W 008°25'411.9
2018-Jun-14 05:30N 36°32' W 008°30'1011.3
2018-Jun-14 04:35N 36°31' W 008°43'1310.8
2018-Jun-14 03:23N 36°31' W 008°59'711.3
2018-Jun-14 02:48N 36°32' W 009°07'411.5
2018-Jun-14 02:29N 36°33' W 009°11'811.6
2018-Jun-14 01:48N 36°36' W 009°20'411.9
2018-Jun-14 01:28N 36°39' W 009°23'611.5
2018-Jun-14 00:56N 36°44' W 009°29'511.2
2018-Jun-14 00:30N 36°47' W 009°33'712.0
2018-Jun-13 23:57N 36°54' W 009°35'712.3
2018-Jun-13 23:21N 37°01' W 009°38'1412.6
2018-Jun-13 22:15N 37°14' W 009°41'312.8
2018-Jun-13 22:00N 37°17' W 009°42'612.6
2018-Jun-13 21:30N 37°24' W 009°43'612.3
2018-Jun-13 21:00N 37°30' W 009°45'612.5
2018-Jun-13 20:30N 37°36' W 009°47'612.6
2018-Jun-13 20:00N 37°42' W 009°48'712.4
2018-Jun-13 19:28N 37°48' W 009°50'612.2
2018-Jun-13 18:58N 37°54' W 009°52'612.5
2018-Jun-13 18:31N 37°60' W 009°54'612.2
2018-Jun-13 18:01N 38°06' W 009°56'612.3
2018-Jun-13 17:31N 38°11' W 009°58'712.4
2018-Jun-13 16:58N 38°18' W 009°60'612.5
2018-Jun-13 16:30N 38°24' W 010°01'612.2
2018-Jun-13 16:00N 38°30' W 010°03'712.4
2018-Jun-13 15:27N 38°36' W 010°05'612.3
2018-Jun-13 15:00N 38°42' W 010°06'612.2
2018-Jun-13 14:30N 38°48' W 010°06'612.1
2018-Jun-13 14:01N 38°54' W 010°06'612.1
2018-Jun-13 13:31N 39°00' W 010°06'611.8
2018-Jun-13 13:00N 39°06' W 010°06'611.8
2018-Jun-13 12:31N 39°12' W 010°06'  
2018-Jun-10 18:19N 49°38' W 003°52'3 9.6
2018-Jun-10 17:58N 49°39' W 003°47'4 9.4
2018-Jun-10 17:30N 49°42' W 003°41'4 9.0
2018-Jun-10 17:00N 49°44' W 003°36'5 8.7
2018-Jun-10 16:27N 49°47' W 003°29'5 8.5
2018-Jun-10 15:54N 49°49' W 003°23'3 8.6
2018-Jun-10 15:30N 49°51' W 003°18'5 8.6
2018-Jun-10 14:58N 49°53' W 003°12'4310.4
2018-Jun-10 10:48N 50°08' W 002°09'412.4
2018-Jun-10 10:30N 50°09' W 002°03'612.3
2018-Jun-10 10:00N 50°11' W 001°54'612.0
2018-Jun-10 09:30N 50°12' W 001°45'611.4
2018-Jun-10 09:00N 50°13' W 001°36'510.8
2018-Jun-10 08:30N 50°15' W 001°28'510.2
2018-Jun-10 08:00N 50°16' W 001°20'5 9.6
2018-Jun-10 07:30N 50°17' W 001°13'4 8.9
2018-Jun-10 07:01N 50°18' W 001°06'4 8.2
2018-Jun-10 06:30N 50°19' W 001°00'4 7.7
2018-Jun-10 06:01N 50°21' W 000°54'4 7.4
2018-Jun-10 05:30N 50°22' W 000°49'4 7.4
2018-Jun-10 05:00N 50°23' W 000°43'4 7.4
2018-Jun-10 04:30N 50°24' W 000°38'4 7.9
2018-Jun-10 04:00N 50°25' W 000°32'510.2
2018-Jun-10 03:29N 50°26' W 000°24'511.0
2018-Jun-10 03:00N 50°28' W 000°16'611.6
2018-Jun-10 02:30N 50°29' W 000°07'612.0
2018-Jun-10 02:01N 50°31' E 000°02'612.4
2018-Jun-10 01:30N 50°32' E 000°12'612.6
2018-Jun-10 01:00N 50°34' E 000°21'612.8
2018-Jun-10 00:30N 50°36' E 000°31'612.6
2018-Jun-10 00:00N 50°40' E 000°39'612.4
2018-Jun-09 23:31N 50°43' E 000°47'612.1
2018-Jun-09 23:01N 50°47' E 000°54'611.8
2018-Jun-09 22:30N 50°51' E 001°02'611.3
2018-Jun-09 21:58N 50°55' E 001°09'710.8
2018-Jun-09 21:20N 50°59' E 001°17'310.1
2018-Jun-09 21:01N 51°01' E 001°21'510.2
2018-Jun-09 20:30N 51°04' E 001°28'510.6
2018-Jun-09 20:00N 51°07' E 001°35'510.6
2018-Jun-09 19:30N 51°11' E 001°42'511.1
2018-Jun-09 19:01N 51°15' E 001°47'612.0
2018-Jun-09 18:30N 51°20' E 001°51'612.7
2018-Jun-09 18:01N 51°25' E 001°57'713.1
2018-Jun-09 17:31N 51°30' E 002°04'713.2
2018-Jun-09 17:00N 51°35' E 002°11'713.3
2018-Jun-09 16:30N 51°40' E 002°18'713.5
2018-Jun-09 16:00N 51°46' E 002°25'1313.1
2018-Jun-09 15:00N 51°56' E 002°38'612.6
2018-Jun-09 14:30N 52°01' E 002°44'612.2
2018-Jun-09 14:00N 52°06' E 002°50'611.7
2018-Jun-09 13:31N 52°10' E 002°56'611.4
2018-Jun-09 13:00N 52°15' E 003°02'511.1
2018-Jun-09 12:30N 52°19' E 003°07'510.9
2018-Jun-09 12:01N 52°24' E 003°13'510.7
2018-Jun-09 11:30N 52°28' E 003°18'510.6
2018-Jun-09 11:00N 52°32' E 003°24'510.6
2018-Jun-09 10:30N 52°36' E 003°29'510.7
2018-Jun-09 10:00N 52°40' E 003°35'511.0
2018-Jun-09 09:31N 52°45' E 003°40'611.4
2018-Jun-09 08:59N 52°49' E 003°46'611.9
2018-Jun-09 08:30N 52°54' E 003°52'612.1
2018-Jun-09 08:01N 52°57' E 003°60'612.7
2018-Jun-09 07:31N 53°02' E 004°08'612.8
2018-Jun-09 07:00N 53°06' E 004°16'612.7
2018-Jun-09 06:30N 53°10' E 004°24'612.8
2018-Jun-09 06:00N 53°16' E 004°28'612.5
2018-Jun-09 05:30N 53°22' E 004°33'612.3
2018-Jun-09 05:00N 53°27' E 004°37'510.8
2018-Jun-09 04:31N 53°30' E 004°45'611.2
2018-Jun-09 04:01N 53°32' E 004°54'611.0
2018-Jun-09 03:30N 53°34' E 005°03'510.7
2018-Jun-09 03:00N 53°36' E 005°11'510.6
2018-Jun-09 02:30N 53°37' E 005°19'510.5
2018-Jun-09 02:00N 53°39' E 005°28'510.6
2018-Jun-09 01:30N 53°41' E 005°36'510.8
2018-Jun-09 01:00N 53°42' E 005°45'611.3
2018-Jun-09 00:30N 53°44' E 005°54'611.6
2018-Jun-09 00:01N 53°45' E 006°04'510.2
2018-Jun-08 23:29N 53°41' E 006°11'510.8
2018-Jun-08 23:00N 53°38' E 006°17'510.1
2018-Jun-08 22:30N 53°37' E 006°26'510.1
2018-Jun-08 22:00N 53°36' E 006°34'611.2
2018-Jun-08 21:30N 53°33' E 006°42'4 8.7
2018-Jun-08 21:01N 53°30' E 006°46'3 5.2
2018-Jun-08 20:30N 53°31' E 006°42'2 3.1
2018-Jun-08 20:00N 53°29' E 006°44'0 0.2
2018-Jun-08 19:30N 53°29' E 006°44'  

Dump ship's entire track history